Nrc Quest — WDF7619 — position and weather

sailwx.info

Track history (hours):
 
Tides and Currents Weather Stations Pressure Air Temp Water Temp Dewpoint Dewpoint Depression Visibility Wind Speed Wind Dir Waves Ship Positions

Nrc Quest

Owner: National Response Corporation, The Woodlands, TX. More information available from US FCC via Universal Licensing System and Coast Guard Vessel Documentation Center.

Last reported at 2018-Jan-11 22:19 UTC. Time now 2018-Jan-18 15:41 UTC.
Position N 32°51' W 119°27'.

Length 46 m; draft 3.5 m.

Type: Ship. MMSI: 367486370.

Date/timePositionNaut miles runAvg speedWind from/ knotsBaromVisibWave heightAir tempDewpointWater temp
2018-Jan-11 22:19N 32°51' W 119°27'4 9.2
2018-Jan-11 21:52N 32°54' W 119°24'4 9.4
2018-Jan-11 21:29N 32°56' W 119°21'5 9.2
2018-Jan-11 20:59N 32°60' W 119°17'5 9.0
2018-Jan-11 20:29N 33°03' W 119°13'5 9.3
2018-Jan-11 19:59N 33°06' W 119°08'4 9.3
2018-Jan-11 19:30N 33°09' W 119°04'5 9.6
2018-Jan-11 19:00N 33°12' W 119°00'5 9.4
2018-Jan-11 18:30N 33°15' W 118°56'5 9.4
2018-Jan-11 18:00N 33°18' W 118°52'5 9.5
2018-Jan-11 17:30N 33°21' W 118°48'5 9.5
2018-Jan-11 17:00N 33°24' W 118°43'5 9.5
2018-Jan-11 16:28N 33°28' W 118°39'5 9.7
2018-Jan-11 15:58N 33°31' W 118°34'5 9.6
2018-Jan-11 15:30N 33°34' W 118°30'5 9.6
2018-Jan-11 14:59N 33°36' W 118°25'5 9.7
2018-Jan-11 14:30N 33°39' W 118°20'  
2018-Jan-04 21:26N 33°43' W 118°17'0 0.0
2018-Jan-04 20:02N 33°43' W 118°17'0 0.0
2018-Jan-04 19:44N 33°43' W 118°17'0 0.0
2018-Jan-04 19:14N 33°43' W 118°17'0 0.0
2018-Jan-04 11:02N 33°43' W 118°17'0 0.0
2018-Jan-04 10:50N 33°43' W 118°17'0 0.0
2018-Jan-04 10:20N 33°43' W 118°17'0 0.0
2018-Jan-04 07:08N 33°43' W 118°17'0 0.0
2018-Jan-04 06:50N 33°43' W 118°17'0 0.0
2018-Jan-04 06:26N 33°43' W 118°17'0 0.0
2018-Jan-04 05:50N 33°43' W 118°17'0 0.0
2018-Jan-04 05:26N 33°43' W 118°17'0 0.0
2018-Jan-03 23:44N 33°43' W 118°17'0 0.0
2018-Jan-03 23:20N 33°43' W 118°17'0 0.0
2018-Jan-03 21:26N 33°43' W 118°17'0 0.0
2018-Jan-03 17:20N 33°43' W 118°17'0 0.0
2018-Jan-03 16:50N 33°43' W 118°17'0 0.0
2018-Jan-03 16:26N 33°43' W 118°17'0 0.0
2018-Jan-03 11:44N 33°43' W 118°17'0 0.0
2018-Jan-03 11:26N 33°43' W 118°17'0 0.0
2018-Jan-03 10:56N 33°43' W 118°17'0 0.0
2018-Jan-03 09:08N 33°43' W 118°17'0 0.0
2018-Jan-03 06:26N 33°43' W 118°17'0 0.0
2018-Jan-03 05:56N 33°43' W 118°17'0 0.0
2018-Jan-03 05:26N 33°43' W 118°17'0 0.0
2018-Jan-03 04:56N 33°43' W 118°17'0 0.0
2018-Jan-03 04:26N 33°43' W 118°17'0 0.0
2018-Jan-03 03:32N 33°43' W 118°17'0 0.0
2018-Jan-03 03:26N 33°43' W 118°17'0 0.0
2018-Jan-03 01:44N 33°43' W 118°17'0 0.0
2018-Jan-02 21:50N 33°43' W 118°17'0 0.0
2018-Jan-02 21:26N 33°43' W 118°17'0 0.0
2018-Jan-02 20:56N 33°43' W 118°17'0 0.0
2018-Jan-02 20:26N 33°43' W 118°17'0 0.0
2018-Jan-02 19:44N 33°43' W 118°17'0 0.0
2018-Jan-02 13:50N 33°43' W 118°17'0 0.0
2018-Jan-02 13:26N 33°43' W 118°17'0 0.0
2018-Jan-02 10:20N 33°43' W 118°17'0 0.0
2018-Jan-02 09:56N 33°43' W 118°17'0 0.0
2018-Jan-02 07:50N 33°43' W 118°17'0 0.0
2018-Jan-02 07:20N 33°43' W 118°17'0 0.0
2018-Jan-02 06:50N 33°43' W 118°17'0 0.0
2018-Jan-02 06:26N 33°43' W 118°17'0 0.0
2018-Jan-02 03:26N 33°43' W 118°17'0 0.0
2018-Jan-02 02:56N 33°43' W 118°17'0 0.0
2018-Jan-02 02:20N 33°43' W 118°17'0 0.0
2018-Jan-02 00:08N 33°43' W 118°17'0 0.0
2018-Jan-01 23:56N 33°43' W 118°17'0 0.0
2018-Jan-01 23:20N 33°43' W 118°17'0 0.0
2018-Jan-01 22:56N 33°43' W 118°17'  
Track history (hours):
 
Tides and Currents Weather Stations Pressure Air Temp Water Temp Dewpoint Dewpoint Depression Visibility Wind Speed Wind Dir Waves Ship Positions

Nrc Quest

Owner: National Response Corporation, The Woodlands, TX. More information available from US FCC via Universal Licensing System and Coast Guard Vessel Documentation Center.

Last reported at 2018-Jan-11 22:19 UTC. Time now 2018-Jan-18 15:41 UTC.
Position N 32°51' W 119°27'.

Length 46 m; draft 3.5 m.

Type: Ship. MMSI: 367486370.

Date/timePositionNaut miles runAvg speedWind from/ knotsBaromVisibWave heightAir tempDewpointWater temp
2018-Jan-11 22:19N 32°51' W 119°27'4 9.2
2018-Jan-11 21:52N 32°54' W 119°24'4 9.4
2018-Jan-11 21:29N 32°56' W 119°21'5 9.2
2018-Jan-11 20:59N 32°60' W 119°17'5 9.0
2018-Jan-11 20:29N 33°03' W 119°13'5 9.3
2018-Jan-11 19:59N 33°06' W 119°08'4 9.3
2018-Jan-11 19:30N 33°09' W 119°04'5 9.6
2018-Jan-11 19:00N 33°12' W 119°00'5 9.4
2018-Jan-11 18:30N 33°15' W 118°56'5 9.4
2018-Jan-11 18:00N 33°18' W 118°52'5 9.5
2018-Jan-11 17:30N 33°21' W 118°48'5 9.5
2018-Jan-11 17:00N 33°24' W 118°43'5 9.5
2018-Jan-11 16:28N 33°28' W 118°39'5 9.7
2018-Jan-11 15:58N 33°31' W 118°34'5 9.6
2018-Jan-11 15:30N 33°34' W 118°30'5 9.6
2018-Jan-11 14:59N 33°36' W 118°25'5 9.7
2018-Jan-11 14:30N 33°39' W 118°20'  
2018-Jan-04 21:26N 33°43' W 118°17'0 0.0
2018-Jan-04 20:02N 33°43' W 118°17'0 0.0
2018-Jan-04 19:44N 33°43' W 118°17'0 0.0
2018-Jan-04 19:14N 33°43' W 118°17'0 0.0
2018-Jan-04 11:02N 33°43' W 118°17'0 0.0
2018-Jan-04 10:50N 33°43' W 118°17'0 0.0
2018-Jan-04 10:20N 33°43' W 118°17'0 0.0
2018-Jan-04 07:08N 33°43' W 118°17'0 0.0
2018-Jan-04 06:50N 33°43' W 118°17'0 0.0
2018-Jan-04 06:26N 33°43' W 118°17'0 0.0
2018-Jan-04 05:50N 33°43' W 118°17'0 0.0
2018-Jan-04 05:26N 33°43' W 118°17'0 0.0
2018-Jan-03 23:44N 33°43' W 118°17'0 0.0
2018-Jan-03 23:20N 33°43' W 118°17'0 0.0
2018-Jan-03 21:26N 33°43' W 118°17'0 0.0
2018-Jan-03 17:20N 33°43' W 118°17'0 0.0
2018-Jan-03 16:50N 33°43' W 118°17'0 0.0
2018-Jan-03 16:26N 33°43' W 118°17'0 0.0
2018-Jan-03 11:44N 33°43' W 118°17'0 0.0
2018-Jan-03 11:26N 33°43' W 118°17'0 0.0
2018-Jan-03 10:56N 33°43' W 118°17'0 0.0
2018-Jan-03 09:08N 33°43' W 118°17'0 0.0
2018-Jan-03 06:26N 33°43' W 118°17'0 0.0
2018-Jan-03 05:56N 33°43' W 118°17'0 0.0
2018-Jan-03 05:26N 33°43' W 118°17'0 0.0
2018-Jan-03 04:56N 33°43' W 118°17'0 0.0
2018-Jan-03 04:26N 33°43' W 118°17'0 0.0
2018-Jan-03 03:32N 33°43' W 118°17'0 0.0
2018-Jan-03 03:26N 33°43' W 118°17'0 0.0
2018-Jan-03 01:44N 33°43' W 118°17'0 0.0
2018-Jan-02 21:50N 33°43' W 118°17'0 0.0
2018-Jan-02 21:26N 33°43' W 118°17'0 0.0
2018-Jan-02 20:56N 33°43' W 118°17'0 0.0
2018-Jan-02 20:26N 33°43' W 118°17'0 0.0
2018-Jan-02 19:44N 33°43' W 118°17'0 0.0
2018-Jan-02 13:50N 33°43' W 118°17'0 0.0
2018-Jan-02 13:26N 33°43' W 118°17'0 0.0
2018-Jan-02 10:20N 33°43' W 118°17'0 0.0
2018-Jan-02 09:56N 33°43' W 118°17'0 0.0
2018-Jan-02 07:50N 33°43' W 118°17'0 0.0
2018-Jan-02 07:20N 33°43' W 118°17'0 0.0
2018-Jan-02 06:50N 33°43' W 118°17'0 0.0
2018-Jan-02 06:26N 33°43' W 118°17'0 0.0
2018-Jan-02 03:26N 33°43' W 118°17'0 0.0
2018-Jan-02 02:56N 33°43' W 118°17'0 0.0
2018-Jan-02 02:20N 33°43' W 118°17'0 0.0
2018-Jan-02 00:08N 33°43' W 118°17'0 0.0
2018-Jan-01 23:56N 33°43' W 118°17'0 0.0
2018-Jan-01 23:20N 33°43' W 118°17'0 0.0
2018-Jan-01 22:56N 33°43' W 118°17'  

Dump ship's entire track history